Terminal Aerodrome Forecast
Issued by NWS Louisville, KY

Home | Current Version | Previous Version | Text Only | Print | Product List | Glossary On
Versions: 1 2 3 4 5 6 7 8 9 10 11 12 13 14 15 16 17 18 19 20 21 22
000
FTUS43 KLMK 290500
TAFLEX
TAF
KLEX 290523Z 2906/3006 17006KT P6SM SCT080 SCT120
     FM291000 17004KT P6SM -SHRA SCT040 BKN060
     FM291400 21014G23KT P6SM SCT025 BKN035
     FM291900 23014G21KT P6SM VCTS BKN035CB BKN250
     FM300100 21007KT P6SM SCT040=

USA.gov is the U.S. government's official web portal to all federal, state and local government web resources and services.